createdAt,value
2018-09-19T00:02:26.617Z,87.30
2018-09-19T00:04:55.079Z,86.60
2018-09-19T00:07:23.574Z,87.00
2018-09-19T00:09:52.175Z,87.40
2018-09-19T00:12:20.598Z,88.20
2018-09-19T00:14:48.991Z,88.80
2018-09-19T00:17:17.439Z,89.90
2018-09-19T00:19:45.854Z,90.30
2018-09-19T00:22:14.357Z,90.70
2018-09-19T00:24:43.028Z,91.00
2018-09-19T00:27:11.602Z,91.50
2018-09-19T00:29:40.066Z,91.90
2018-09-19T00:32:08.732Z,92.40
2018-09-19T00:34:37.471Z,92.70
2018-09-19T00:37:06.198Z,92.90
2018-09-19T00:39:34.674Z,93.40
2018-09-19T00:42:03.122Z,93.10
2018-09-19T00:44:31.552Z,93.30
2018-09-19T00:47:00.079Z,93.20
2018-09-19T00:49:28.750Z,93.30
2018-09-19T00:51:57.183Z,93.40
2018-09-19T00:54:25.638Z,93.50
2018-09-19T00:56:54.068Z,93.60
2018-09-19T00:59:22.581Z,93.60
2018-09-19T01:01:51.201Z,93.70
2018-09-19T01:04:19.738Z,93.80
2018-09-19T01:06:48.221Z,93.90
2018-09-19T01:09:16.661Z,94.10
2018-09-19T01:11:45.220Z,94.40
2018-09-19T01:14:13.735Z,94.70
2018-09-19T01:16:42.216Z,95.00
2018-09-19T01:19:10.644Z,95.20
2018-09-19T01:21:39.069Z,95.30
2018-09-19T01:24:07.558Z,95.40
2018-09-19T01:26:35.975Z,95.60
2018-09-19T01:29:04.475Z,95.70
2018-09-19T01:31:32.874Z,95.90
2018-09-19T01:34:01.322Z,95.90
2018-09-19T01:36:29.814Z,95.90
2018-09-19T01:38:58.273Z,95.80
2018-09-19T01:41:26.719Z,95.70
2018-09-19T01:43:55.423Z,95.70
2018-09-19T01:46:23.857Z,95.70
2018-09-19T01:48:52.379Z,95.90
2018-09-19T01:51:20.986Z,96.00
2018-09-19T01:53:49.528Z,96.10
2018-09-19T01:56:24.620Z,96.50
2018-09-19T01:58:53.099Z,97.20
2018-09-19T02:01:21.545Z,97.30
2018-09-19T02:03:50.322Z,97.80
2018-09-19T02:06:18.802Z,98.80
2018-09-19T02:08:47.240Z,98.90
2018-09-19T02:11:15.684Z,99.20
2018-09-19T02:13:44.166Z,99.70
2018-09-19T02:16:12.751Z,99.90
2018-09-19T02:18:41.208Z,99.90
2018-09-19T02:21:09.800Z,99.90
2018-09-19T02:23:38.267Z,99.90
2018-09-19T02:26:06.747Z,99.90
2018-09-19T02:28:35.197Z,99.90
2018-09-19T02:31:03.866Z,99.90
2018-09-19T02:33:32.272Z,99.90
2018-09-19T02:36:00.724Z,99.90
2018-09-19T02:38:29.178Z,99.90
2018-09-19T02:40:57.598Z,99.90
2018-09-19T02:43:26.314Z,99.90
2018-09-19T02:45:54.759Z,99.90
2018-09-19T02:48:23.184Z,99.90
2018-09-19T02:50:52.075Z,99.90
2018-09-19T02:53:20.562Z,99.90
2018-09-19T02:55:49.011Z,99.90
2018-09-19T02:58:17.515Z,99.90
2018-09-19T03:00:45.935Z,99.90
2018-09-19T03:03:14.334Z,99.90
2018-09-19T03:05:42.778Z,99.90
2018-09-19T03:08:11.194Z,99.90
2018-09-19T03:10:39.677Z,99.90
2018-09-19T03:13:08.171Z,99.90
2018-09-19T03:15:36.637Z,99.90
2018-09-19T03:18:05.073Z,99.90
2018-09-19T03:20:33.630Z,99.90
2018-09-19T03:23:02.180Z,99.90
2018-09-19T03:25:30.660Z,99.90
2018-09-19T03:27:59.349Z,99.90
2018-09-19T03:30:27.827Z,99.90
2018-09-19T03:32:56.423Z,99.90
2018-09-19T03:35:25.063Z,99.90
2018-09-19T03:37:53.699Z,99.90
2018-09-19T03:40:22.122Z,99.90
2018-09-19T03:42:50.792Z,99.90
2018-09-19T03:45:19.196Z,99.90
2018-09-19T03:47:47.679Z,99.90
2018-09-19T03:50:16.209Z,99.90
2018-09-19T03:52:44.861Z,99.90
2018-09-19T03:55:13.250Z,99.90
2018-09-19T03:57:41.672Z,99.90
2018-09-19T04:00:10.102Z,99.90
2018-09-19T04:02:38.606Z,99.90
2018-09-19T04:05:07.084Z,99.90
2018-09-19T04:07:35.534Z,99.90
2018-09-19T04:10:04.001Z,99.90
2018-09-19T04:12:32.631Z,99.90
2018-09-19T04:15:01.059Z,99.90
2018-09-19T04:17:29.498Z,99.90
2018-09-19T04:19:57.944Z,99.90
2018-09-19T04:22:26.502Z,99.90
2018-09-19T04:24:54.966Z,99.90
2018-09-19T04:27:23.388Z,99.90
2018-09-19T04:29:51.893Z,99.90
2018-09-19T04:32:20.565Z,99.90
2018-09-19T04:34:49.121Z,99.90
2018-09-19T04:37:17.675Z,99.90
2018-09-19T04:39:46.289Z,99.90
2018-09-19T04:42:14.920Z,99.90
2018-09-19T04:44:43.326Z,99.90
2018-09-19T04:47:11.930Z,99.90
2018-09-19T04:49:40.362Z,99.90
2018-09-19T04:52:08.942Z,99.90
2018-09-19T04:54:37.356Z,99.90
2018-09-19T04:57:05.964Z,99.90
2018-09-19T04:59:34.400Z,99.90
2018-09-19T05:02:02.846Z,99.90
2018-09-19T05:04:31.313Z,99.90
2018-09-19T05:06:59.808Z,99.90
2018-09-19T05:09:28.253Z,99.90
2018-09-19T05:11:56.745Z,99.90
2018-09-19T05:14:25.233Z,99.90
2018-09-19T05:16:53.655Z,99.90
2018-09-19T05:19:22.075Z,99.90
2018-09-19T05:21:50.573Z,99.90
2018-09-19T05:24:19.060Z,99.90
2018-09-19T05:26:47.694Z,99.90
2018-09-19T05:29:16.127Z,99.90
2018-09-19T05:31:44.607Z,99.90
2018-09-19T05:34:13.181Z,99.90
2018-09-19T05:36:41.643Z,99.90
2018-09-19T05:39:10.095Z,99.90
2018-09-19T05:41:38.497Z,99.90
2018-09-19T05:44:06.985Z,99.90
2018-09-19T05:46:35.565Z,99.90
2018-09-19T05:49:04.546Z,99.90
2018-09-19T05:51:33.230Z,99.90
2018-09-19T05:54:01.831Z,99.90
2018-09-19T05:56:30.278Z,99.90
2018-09-19T05:58:58.795Z,99.90
2018-09-19T06:01:27.392Z,99.90
2018-09-19T06:03:55.835Z,99.90
2018-09-19T06:06:24.331Z,99.90
2018-09-19T06:08:52.791Z,99.90
2018-09-19T06:11:21.209Z,99.90
2018-09-19T06:13:49.921Z,99.90
2018-09-19T06:16:18.337Z,99.90
2018-09-19T06:18:46.999Z,99.90
2018-09-19T06:21:15.484Z,99.90
2018-09-19T06:23:43.941Z,99.90
2018-09-19T06:26:12.358Z,99.90
2018-09-19T06:28:40.896Z,99.90
2018-09-19T06:31:09.343Z,99.90
2018-09-19T06:33:37.773Z,99.90
2018-09-19T06:36:06.246Z,99.90
2018-09-19T06:38:34.821Z,99.90
2018-09-19T06:41:03.443Z,99.90
2018-09-19T06:43:32.337Z,99.90
2018-09-19T06:46:00.805Z,99.90
2018-09-19T06:48:29.247Z,99.90
2018-09-19T06:50:57.798Z,99.90
2018-09-19T06:53:26.261Z,99.00
2018-09-19T06:55:54.843Z,98.70
2018-09-19T06:58:23.242Z,98.70
2018-09-19T07:00:51.717Z,98.40
2018-09-19T07:03:20.147Z,98.50
2018-09-19T07:05:48.619Z,98.40
2018-09-19T07:08:17.182Z,98.10
2018-09-19T07:10:45.623Z,98.10
2018-09-19T07:13:14.145Z,97.70
2018-09-19T07:15:42.847Z,97.50
2018-09-19T07:18:11.272Z,96.90
2018-09-19T07:20:39.849Z,96.00
2018-09-19T07:23:08.278Z,95.30
2018-09-19T07:25:36.745Z,95.10
2018-09-19T07:28:05.211Z,95.40
2018-09-19T07:30:33.759Z,94.90
2018-09-19T07:33:02.165Z,94.60
2018-09-19T07:35:30.628Z,94.30
2018-09-19T07:37:59.189Z,94.10
2018-09-19T07:40:27.715Z,93.90
2018-09-19T07:42:56.232Z,93.40
2018-09-19T07:45:24.674Z,92.80
2018-09-19T07:47:53.176Z,92.60
2018-09-19T07:50:21.635Z,92.60
2018-09-19T07:52:50.081Z,92.30
2018-09-19T07:55:18.555Z,92.00
2018-09-19T07:57:47.459Z,91.80
2018-09-19T08:00:15.899Z,91.60
2018-09-19T08:02:44.336Z,91.40
2018-09-19T08:05:12.821Z,90.20
2018-09-19T08:07:41.471Z,87.90
2018-09-19T08:10:09.934Z,87.50
2018-09-19T08:12:38.429Z,86.80
2018-09-19T08:15:07.074Z,86.40
2018-09-19T08:17:35.588Z,86.10
2018-09-19T08:20:04.023Z,86.20
2018-09-19T08:22:32.566Z,85.70
2018-09-19T08:25:01.216Z,85.50
2018-09-19T08:27:29.700Z,85.70
2018-09-19T08:29:58.111Z,86.20
2018-09-19T08:32:26.555Z,86.70
2018-09-19T08:34:54.967Z,84.90
2018-09-19T08:37:23.594Z,83.20
2018-09-19T08:39:52.026Z,85.20
2018-09-19T08:42:20.530Z,84.10
2018-09-19T08:44:48.976Z,86.10
2018-09-19T08:47:17.437Z,86.30
2018-09-19T08:49:46.011Z,84.70
2018-09-19T08:52:14.522Z,80.40
2018-09-19T08:54:43.243Z,81.20
2018-09-19T08:57:12.481Z,79.40
2018-09-19T08:59:41.042Z,80.70
2018-09-19T09:02:09.458Z,80.70
2018-09-19T09:04:37.933Z,81.00
2018-09-19T09:07:06.373Z,83.40
2018-09-19T09:09:34.864Z,82.20
2018-09-19T09:12:03.300Z,82.40
2018-09-19T09:14:31.891Z,81.10
2018-09-19T09:17:00.334Z,81.00
2018-09-19T09:19:28.806Z,79.00
2018-09-19T09:21:57.259Z,78.60
2018-09-19T09:24:25.708Z,79.40
2018-09-19T09:26:54.241Z,80.40
2018-09-19T09:29:22.848Z,82.10
2018-09-19T09:31:51.344Z,82.00
2018-09-19T09:34:19.862Z,81.20
2018-09-19T09:36:48.532Z,82.00
2018-09-19T09:39:17.064Z,83.00
2018-09-19T09:41:45.567Z,82.60
2018-09-19T09:44:13.970Z,83.70
2018-09-19T09:46:42.440Z,84.50
2018-09-19T09:49:10.897Z,85.20
2018-09-19T09:51:39.370Z,85.20
2018-09-19T09:54:07.820Z,84.90
2018-09-19T09:56:36.319Z,85.10
2018-09-19T09:59:04.797Z,85.50
2018-09-19T10:01:33.199Z,86.50
2018-09-19T10:04:01.747Z,85.90
2018-09-19T10:06:30.212Z,86.00
2018-09-19T10:08:58.854Z,85.30
2018-09-19T10:11:28.161Z,85.80
2018-09-19T10:13:56.634Z,86.10
2018-09-19T10:16:25.122Z,86.20
2018-09-19T10:18:53.558Z,85.70
2018-09-19T10:21:22.589Z,86.10
2018-09-19T10:23:51.350Z,86.50
2018-09-19T10:26:20.347Z,86.40
2018-09-19T10:28:48.961Z,85.50
2018-09-19T10:31:17.679Z,85.50
2018-09-19T10:33:46.411Z,85.30
2018-09-19T10:36:14.905Z,84.60
2018-09-19T10:38:43.612Z,84.80
2018-09-19T10:41:12.193Z,84.60
2018-09-19T10:43:40.667Z,84.20
2018-09-19T10:46:09.118Z,84.10
2018-09-19T10:48:38.065Z,84.10
2018-09-19T10:51:06.634Z,84.60
2018-09-19T10:53:35.038Z,84.20
2018-09-19T10:56:04.383Z,84.50
2018-09-19T10:58:32.878Z,83.70
2018-09-19T11:01:01.434Z,84.00
2018-09-19T11:03:29.875Z,84.10
2018-09-19T11:05:59.141Z,84.40
2018-09-19T11:08:27.534Z,84.50
2018-09-19T11:10:56.540Z,84.60
2018-09-19T11:13:25.667Z,83.30
2018-09-19T11:15:56.931Z,82.70
2018-09-19T11:18:25.427Z,81.50
2018-09-19T11:20:53.877Z,81.10
2018-09-19T11:23:22.890Z,80.50
2018-09-19T11:25:51.706Z,80.90
2018-09-19T11:28:20.844Z,81.00
2018-09-19T11:30:49.822Z,80.40
2018-09-19T11:33:18.508Z,77.80
2018-09-19T11:35:47.692Z,77.50
2018-09-19T11:38:16.203Z,76.50
2018-09-19T11:40:45.174Z,77.50
2018-09-19T11:43:14.354Z,76.60
2018-09-19T11:45:43.544Z,75.60
2018-09-19T11:48:12.571Z,72.70
2018-09-19T11:50:41.558Z,72.20
2018-09-19T11:53:16.079Z,70.70
2018-09-19T11:55:45.051Z,69.10
2018-09-19T11:58:14.052Z,68.70
2018-09-19T12:00:43.090Z,67.60
2018-09-19T12:03:12.057Z,66.40
2018-09-19T12:05:41.071Z,64.90
2018-09-19T12:08:10.043Z,64.40
2018-09-19T12:10:39.155Z,62.50
2018-09-19T12:13:08.108Z,63.70
2018-09-19T12:15:37.186Z,65.00
2018-09-19T12:18:06.206Z,65.40
2018-09-19T12:20:35.200Z,65.20
2018-09-19T12:23:04.145Z,64.20
2018-09-19T12:25:33.145Z,63.60
2018-09-19T12:28:02.126Z,63.60
2018-09-19T12:30:31.089Z,63.40
2018-09-19T12:33:00.051Z,63.20
2018-09-19T12:35:29.039Z,61.60
2018-09-19T12:37:58.015Z,62.20
2018-09-19T12:40:27.047Z,60.90
2018-09-19T12:42:56.098Z,59.70
2018-09-19T12:45:25.139Z,58.10
2018-09-19T12:47:54.215Z,57.20
2018-09-19T12:50:23.226Z,57.80
2018-09-19T12:52:52.219Z,54.90
2018-09-19T12:55:21.260Z,54.60
2018-09-19T12:57:50.215Z,54.60
2018-09-19T13:00:19.329Z,55.20
2018-09-19T13:02:48.393Z,55.50
2018-09-19T13:05:17.465Z,53.60
2018-09-19T13:07:46.496Z,53.70
2018-09-19T13:10:15.532Z,52.40
2018-09-19T13:12:44.496Z,51.60
2018-09-19T13:15:13.582Z,52.80
2018-09-19T13:17:42.658Z,51.50
2018-09-19T13:20:11.684Z,50.50
2018-09-19T13:22:40.718Z,49.50
2018-09-19T13:25:10.038Z,49.70
2018-09-19T13:27:39.102Z,49.70
2018-09-19T13:30:08.282Z,50.80
2018-09-19T13:32:37.240Z,51.50
2018-09-19T13:35:06.253Z,51.60
2018-09-19T13:37:35.246Z,51.80
2018-09-19T13:40:04.432Z,50.30
2018-09-19T13:42:33.672Z,50.10
2018-09-19T13:45:02.714Z,47.50
2018-09-19T13:47:31.698Z,46.40
2018-09-19T13:50:10.921Z,46.40
2018-09-19T13:52:39.904Z,47.40
2018-09-19T13:55:08.969Z,46.50
2018-09-19T13:57:38.002Z,44.80
2018-09-19T14:00:07.383Z,44.90
2018-09-19T14:02:36.430Z,43.80
2018-09-19T14:05:05.490Z,44.40
2018-09-19T14:07:34.478Z,42.10
2018-09-19T14:10:03.812Z,41.50
2018-09-19T14:12:33.068Z,40.50
2018-09-19T14:15:02.106Z,39.30
2018-09-19T14:17:31.110Z,38.40
2018-09-19T14:20:00.196Z,37.10
2018-09-19T14:22:29.184Z,35.30
2018-09-19T14:24:59.318Z,33.60
2018-09-19T14:27:28.302Z,31.90
2018-09-19T14:29:57.270Z,30.00
2018-09-19T14:32:26.269Z,29.40
2018-09-19T14:34:55.254Z,29.30
2018-09-19T14:37:24.252Z,28.40
2018-09-19T14:39:53.253Z,27.30
2018-09-19T14:42:22.306Z,26.20
2018-09-19T14:44:51.312Z,26.10
2018-09-19T14:47:20.381Z,25.40
2018-09-19T14:49:49.734Z,24.50
2018-09-19T14:52:18.810Z,24.50
2018-09-19T14:54:47.944Z,24.80
2018-09-19T14:57:17.012Z,23.80
2018-09-19T14:59:46.104Z,24.10
2018-09-19T15:02:15.116Z,24.20
2018-09-19T15:04:44.146Z,24.00
2018-09-19T15:07:13.176Z,23.50
2018-09-19T15:09:42.144Z,23.40
2018-09-19T15:12:11.159Z,23.90
2018-09-19T15:14:40.281Z,23.70
2018-09-19T15:17:09.375Z,24.00
2018-09-19T15:19:38.441Z,24.00
2018-09-19T15:22:07.819Z,24.70
2018-09-19T15:24:36.867Z,25.30
2018-09-19T15:27:06.375Z,25.50
2018-09-19T15:29:35.355Z,25.00
2018-09-19T15:32:04.351Z,26.20
2018-09-19T15:34:33.381Z,27.50
2018-09-19T15:37:02.499Z,28.60
2018-09-19T15:39:31.554Z,30.10
2018-09-19T15:42:00.579Z,32.60
2018-09-19T15:44:29.719Z,34.10
2018-09-19T15:46:58.959Z,35.40
2018-09-19T15:49:27.968Z,35.70
2018-09-19T15:51:57.090Z,35.30
2018-09-19T15:54:26.113Z,35.50
2018-09-19T15:56:55.270Z,36.90
2018-09-19T15:59:24.316Z,38.00
2018-09-19T16:01:53.306Z,39.40
2018-09-19T16:04:22.317Z,40.60
2018-09-19T16:06:51.351Z,42.70
2018-09-19T16:09:20.392Z,43.80
2018-09-19T16:11:49.524Z,44.20
2018-09-19T16:14:18.526Z,45.70
2018-09-19T16:16:47.730Z,46.50
2018-09-19T16:19:18.622Z,48.20
2018-09-19T16:21:48.094Z,49.30
2018-09-19T16:24:17.155Z,50.20
2018-09-19T16:26:46.156Z,51.20
2018-09-19T16:29:15.183Z,51.60
2018-09-19T16:31:44.322Z,52.10
2018-09-19T16:34:13.415Z,52.60
2018-09-19T16:36:42.403Z,52.80
2018-09-19T16:39:12.644Z,53.50
2018-09-19T16:41:41.723Z,53.80
2018-09-19T16:44:10.840Z,53.70
2018-09-19T16:46:39.894Z,54.40
2018-09-19T16:49:09.296Z,54.60
2018-09-19T16:51:38.389Z,55.50
2018-09-19T16:54:07.409Z,56.60
2018-09-19T16:56:36.431Z,56.60
2018-09-19T16:59:04.982Z,58.60
2018-09-19T17:01:33.562Z,57.90
2018-09-19T17:04:02.818Z,58.50
2018-09-19T17:06:31.820Z,58.40
2018-09-19T17:09:00.874Z,58.60
2018-09-19T17:11:29.875Z,59.30
2018-09-19T17:13:58.860Z,59.10
2018-09-19T17:16:27.866Z,59.20
2018-09-19T17:18:57.370Z,60.20
2018-09-19T17:21:26.408Z,60.30
2018-09-19T17:23:55.407Z,61.20
2018-09-19T17:26:24.483Z,61.30
2018-09-19T17:28:53.580Z,62.30
2018-09-19T17:31:22.553Z,62.00
2018-09-19T17:33:51.586Z,63.00
2018-09-19T17:36:20.643Z,63.30
2018-09-19T17:38:49.645Z,63.90
2018-09-19T17:41:18.905Z,64.00
2018-09-19T17:43:47.961Z,64.90
2018-09-19T17:46:16.975Z,65.20
2018-09-19T17:48:46.087Z,65.50
2018-09-19T17:51:15.119Z,66.10
2018-09-19T17:53:44.225Z,66.90
2018-09-19T17:56:12.656Z,66.90
2018-09-19T17:58:41.631Z,68.00
2018-09-19T18:01:10.654Z,68.70
2018-09-19T18:03:39.099Z,69.30
2018-09-19T18:06:07.622Z,69.00
2018-09-19T18:08:36.202Z,69.70
2018-09-19T18:11:04.646Z,69.20
2018-09-19T18:13:33.831Z,69.90
2018-09-19T18:16:02.926Z,70.40
2018-09-19T18:18:31.334Z,71.40
2018-09-19T18:20:59.767Z,71.90
2018-09-19T18:23:28.340Z,72.00
2018-09-19T18:25:57.039Z,72.50
2018-09-19T18:28:25.531Z,72.30
2018-09-19T18:30:53.986Z,72.30
2018-09-19T18:33:22.603Z,71.80
2018-09-19T18:35:51.697Z,72.90
2018-09-19T18:38:20.138Z,73.90
2018-09-19T18:40:48.762Z,74.40
2018-09-19T18:43:17.250Z,74.30
2018-09-19T18:45:45.924Z,74.40
2018-09-19T18:48:14.397Z,75.10
2018-09-19T18:50:42.872Z,75.20
2018-09-19T18:53:11.883Z,76.00
2018-09-19T18:55:40.367Z,76.20
2018-09-19T18:58:08.835Z,76.60
2018-09-19T19:00:37.299Z,77.40
2018-09-19T19:03:06.011Z,76.60
2018-09-19T19:05:34.438Z,76.40
2018-09-19T19:08:02.907Z,77.20
2018-09-19T19:10:31.529Z,77.90
2018-09-19T19:13:00.124Z,77.40
2018-09-19T19:15:28.671Z,78.20
2018-09-19T19:17:57.214Z,78.40
2018-09-19T19:20:25.684Z,79.20
2018-09-19T19:22:54.188Z,80.00
2018-09-19T19:25:23.147Z,80.40
2018-09-19T19:27:58.390Z,81.10
2018-09-19T19:30:26.978Z,81.50
2018-09-19T19:32:55.780Z,82.10
2018-09-19T19:35:24.258Z,82.60
2018-09-19T19:37:52.919Z,83.30
2018-09-19T19:40:21.518Z,83.70
2018-09-19T19:42:50.150Z,84.10
2018-09-19T19:45:18.671Z,84.50
2018-09-19T19:47:47.130Z,85.40
2018-09-19T19:50:15.718Z,86.10
2018-09-19T19:52:44.208Z,86.50
2018-09-19T19:55:12.709Z,87.10
2018-09-19T19:57:41.167Z,87.60
2018-09-19T20:00:09.674Z,88.40
2018-09-19T20:02:38.153Z,88.80
2018-09-19T20:05:06.629Z,89.60
2018-09-19T20:07:35.155Z,90.30
2018-09-19T20:10:03.866Z,90.90
2018-09-19T20:12:32.467Z,91.30
2018-09-19T20:15:01.422Z,91.60
2018-09-19T20:17:29.953Z,91.90
2018-09-19T20:19:58.453Z,92.10
2018-09-19T20:22:26.879Z,92.40
2018-09-19T20:24:55.329Z,92.70
2018-09-19T20:27:23.987Z,92.60
2018-09-19T20:29:52.495Z,93.00
2018-09-19T20:32:20.960Z,93.30
2018-09-19T20:34:49.488Z,93.40
2018-09-19T20:37:17.890Z,93.70
2018-09-19T20:39:46.322Z,94.00
2018-09-19T20:42:14.818Z,94.20
2018-09-19T20:44:43.250Z,94.30
2018-09-19T20:47:11.859Z,94.60
2018-09-19T20:49:40.376Z,94.80
2018-09-19T20:52:08.919Z,95.00
2018-09-19T20:54:37.820Z,95.30
2018-09-19T20:57:06.532Z,95.30
2018-09-19T20:59:35.036Z,95.50
2018-09-19T21:02:03.582Z,95.60
2018-09-19T21:04:32.122Z,95.70
2018-09-19T21:07:00.651Z,95.90
2018-09-19T21:09:29.243Z,95.90
2018-09-19T21:11:57.715Z,95.90
2018-09-19T21:14:26.201Z,96.00
2018-09-19T21:16:54.666Z,96.40
2018-09-19T21:19:23.375Z,96.40
2018-09-19T21:21:51.980Z,96.50
2018-09-19T21:24:20.605Z,96.60
2018-09-19T21:26:49.283Z,96.90
2018-09-19T21:29:17.809Z,96.90
2018-09-19T21:31:46.335Z,97.10
2018-09-19T21:34:14.896Z,97.20
2018-09-19T21:36:43.437Z,97.20
2018-09-19T21:39:12.378Z,97.50
2018-09-19T21:41:40.906Z,97.70
2018-09-19T21:44:09.482Z,97.80
2018-09-19T21:46:37.955Z,97.80
2018-09-19T21:49:06.432Z,98.20
2018-09-19T21:51:34.940Z,98.30
2018-09-19T21:54:03.668Z,98.70
2018-09-19T21:56:32.129Z,99.00
2018-09-19T21:59:00.572Z,99.40
2018-09-19T22:01:34.445Z,99.40
2018-09-19T22:04:02.904Z,99.60
2018-09-19T22:06:31.358Z,99.80
2018-09-19T22:08:59.849Z,99.70
2018-09-19T22:11:28.283Z,99.60
2018-09-19T22:13:56.899Z,99.80
2018-09-19T22:16:25.341Z,99.80
2018-09-19T22:18:54.089Z,99.70
2018-09-19T22:21:22.697Z,99.70
2018-09-19T22:23:51.162Z,99.90
2018-09-19T22:26:19.676Z,99.90
2018-09-19T22:28:48.207Z,99.90
2018-09-19T22:31:16.677Z,99.90
2018-09-19T22:33:45.170Z,99.90
2018-09-19T22:36:13.726Z,99.90
2018-09-19T22:38:42.241Z,99.90
2018-09-19T22:41:10.709Z,99.90
2018-09-19T22:43:39.245Z,99.90
2018-09-19T22:46:07.739Z,99.90
2018-09-19T22:48:36.248Z,99.90
2018-09-19T22:51:04.803Z,99.90
2018-09-19T22:53:33.276Z,99.90
2018-09-19T22:56:01.702Z,99.90
2018-09-19T22:58:30.168Z,99.90
2018-09-19T23:00:58.569Z,99.90
2018-09-19T23:03:27.026Z,99.90
2018-09-19T23:05:55.433Z,99.90
2018-09-19T23:08:24.141Z,99.90
2018-09-19T23:10:52.559Z,99.90
2018-09-19T23:13:21.021Z,99.90
2018-09-19T23:15:49.478Z,99.90
2018-09-19T23:18:18.015Z,99.90
2018-09-19T23:20:46.503Z,99.90
2018-09-19T23:23:15.122Z,99.90
2018-09-19T23:25:43.770Z,99.90
2018-09-19T23:28:12.410Z,99.90
2018-09-19T23:30:40.974Z,99.90
2018-09-19T23:33:09.452Z,99.90
2018-09-19T23:35:38.138Z,99.90
2018-09-19T23:38:06.585Z,99.70
2018-09-19T23:40:35.758Z,99.60
2018-09-19T23:43:04.170Z,99.70
2018-09-19T23:45:32.638Z,99.70
2018-09-19T23:48:01.119Z,99.50
2018-09-19T23:50:29.650Z,99.60
2018-09-19T23:52:58.090Z,99.50
2018-09-19T23:55:26.547Z,99.30
2018-09-19T23:57:55.020Z,99.30
